Strona główna
METAR-TAF:

METAR-TAF

Lotnisko :

Port lotniczy Trang

Trang, Tajlandia

Szerokość geograficzna: 07-31N, Długość geograficzna: 099-37E, wysokość: 14 m

Aktualna obserwacja pogody

Raport powstał 1 godzina i 7 minut temu, godzina 03:00 UTC
Wiatr 11 kt od wschodnio-północny wschód
Temperatura 29°C
Wilgotność 66%
Ciśnienie 1011 hPa
Widzialność 10 km lub więcej
Mało chmury na wysokości 2000 ft

METAR: VTST 110300Z 07011KT 9999 FEW020 29/22 Q1011 NOSIG

czas: 11:07 (04:07 UTC)

Prognoza

Raport powstał 5 godziny i 7 minut temu, godzina 23:00 UTC
Prognoza ważna od 11 godzina 00 UTC do 11 godzina 24 UTC
Wiatr 8 kt od wschodnio-północny wschód
Widzialność 10 km lub więcej
Mało chmury na wysokości 2000 ft
Przejściowo
od 11 godzina 02 UTC do 11 godzina 08 UTC
Wiatr 10 kt od wschodnio-północny wschód w porywach dochodzący do 25 kt

TAF: VTST 102300Z 1100/1124 06008KT 9999 FEW020 TEMPO 1102/1108 06010G25KT

Obserwacja i prognoza pogody dla ponad 4000 lotnisk (raport METAR i TAF).

Dostępne stacje oznaczono żółtymi i czerwonymi punktami na mapie.

Najedź kursorem aby zobaczyć nazwę stacji.

Kliknij aby zobaczyć obserwacje i prognozy pogody.

Aby zmienić mapę: kliknij na zielony przycisk z czarnym krzyżykiem, aby powiększyć; na zielony przycisk z myślnikiem, aby pomniejszyć; na zielone strzałki, aby przejść do map sąsiednich.


METAR-TAF: